Aviation

Port-au-Prince

FTHA31 MTPP 181600
TAF MTPP 181600Z 1818/1918 09011KT 9000 FEW027
BECMG 1820/1822 30012KT
PROB40 TEMPO 19000/1904 4500 TSRA SCT014CB BKN040
BECMG 1906/1910 VRB02KT 8000 NSW NSC
FM191300 09012KT 8000 FEW022=


Cap-Haïtien

FTHA31 MTCH 181600
TAF MTCH 181600Z 1818/1918 01008KT 9000 SCT030TCU
TEMPO 1906/11910 VRB02KT
FM191500 05012KT 9000 FEW025=